createdAt,value
2019-06-20T00:02:21.834Z,18.50
2019-06-20T00:05:09.689Z,18.60
2019-06-20T00:07:38.125Z,18.60
2019-06-20T00:10:25.974Z,18.50
2019-06-20T00:13:13.823Z,18.40
2019-06-20T00:15:42.341Z,18.40
2019-06-20T00:18:10.862Z,18.50
2019-06-20T00:20:58.648Z,18.50
2019-06-20T00:23:46.427Z,18.60
2019-06-20T00:26:14.878Z,18.70
2019-06-20T00:29:02.727Z,18.90
2019-06-20T00:31:50.510Z,18.90
2019-06-20T00:34:18.952Z,19.00
2019-06-20T00:37:06.737Z,18.90
2019-06-20T00:39:35.191Z,18.80
2019-06-20T00:42:22.964Z,18.80
2019-06-20T00:45:11.101Z,18.70
2019-06-20T00:47:58.879Z,18.70
2019-06-20T00:50:46.661Z,18.60
2019-06-20T00:53:34.436Z,18.50
2019-06-20T00:59:16.736Z,18.30
2019-06-20T01:02:04.528Z,18.20
2019-06-20T01:04:32.959Z,18.10
2019-06-20T01:07:01.413Z,18.20
2019-06-20T01:09:49.194Z,18.20
2019-06-20T01:12:36.981Z,18.10
2019-06-20T01:15:24.834Z,18.20
2019-06-20T01:18:12.596Z,17.80
2019-06-20T01:20:41.071Z,18.00
2019-06-20T01:23:28.845Z,18.00
2019-06-20T01:26:16.636Z,18.00
2019-06-20T01:29:04.589Z,18.00
2019-06-20T01:31:52.407Z,18.00
2019-06-20T01:34:40.228Z,17.90
2019-06-20T01:37:28.010Z,18.00
2019-06-20T01:40:15.798Z,18.00
2019-06-20T01:43:03.745Z,17.90
2019-06-20T01:45:51.533Z,17.80
2019-06-20T01:48:39.296Z,17.90
2019-06-20T01:51:27.088Z,17.90
2019-06-20T01:54:14.872Z,17.80
2019-06-20T01:57:02.650Z,17.30
2019-06-20T01:59:50.428Z,17.50
2019-06-20T02:02:38.198Z,17.60
2019-06-20T02:05:26.009Z,17.50
2019-06-20T02:08:07.089Z,16.90
2019-06-20T02:10:48.034Z,16.80
2019-06-20T02:13:28.612Z,16.90
2019-06-20T02:15:57.381Z,16.70
2019-06-20T02:18:45.166Z,17.00
2019-06-20T02:21:33.006Z,17.10
2019-06-20T02:24:20.784Z,17.10
2019-06-20T02:27:08.570Z,17.00
2019-06-20T02:29:56.380Z,17.00
2019-06-20T02:32:44.181Z,17.20
2019-06-20T02:35:51.288Z,17.20
2019-06-20T02:38:39.048Z,17.00
2019-06-20T02:41:26.828Z,17.10
2019-06-20T02:44:29.186Z,17.10
2019-06-20T02:47:04.193Z,17.10
2019-06-20T02:49:32.632Z,16.90
2019-06-20T02:52:20.405Z,16.90
2019-06-20T02:54:48.849Z,16.80
2019-06-20T02:57:36.623Z,16.80
2019-06-20T03:00:43.739Z,16.80
2019-06-20T03:03:31.517Z,16.50
2019-06-20T03:06:19.592Z,16.60
2019-06-20T03:09:07.426Z,16.80
2019-06-20T03:11:35.901Z,16.80
2019-06-20T03:14:23.667Z,16.70
2019-06-20T03:17:11.624Z,16.70
2019-06-20T03:19:59.404Z,16.80
2019-06-20T03:22:47.185Z,16.60
2019-06-20T03:25:34.956Z,16.70
2019-06-20T03:28:22.758Z,16.80
2019-06-20T03:31:10.537Z,16.70
2019-06-20T03:33:58.299Z,16.70
2019-06-20T03:36:46.081Z,16.70
2019-06-20T03:39:33.849Z,16.80
2019-06-20T03:42:21.652Z,16.80
2019-06-20T03:45:09.577Z,16.80
2019-06-20T03:50:44.858Z,16.80
2019-06-20T03:53:32.649Z,16.90
2019-06-20T03:56:39.636Z,16.80
2019-06-20T03:59:08.132Z,16.80
2019-06-20T04:01:55.936Z,16.70
2019-06-20T04:04:43.768Z,16.80
2019-06-20T04:07:24.057Z,16.80
2019-06-20T04:10:04.740Z,16.80
2019-06-20T04:12:45.709Z,16.90
2019-06-20T04:15:26.613Z,16.90
2019-06-20T04:18:07.088Z,16.80
2019-06-20T04:20:47.800Z,17.00
2019-06-20T04:23:28.704Z,17.10
2019-06-20T04:26:09.737Z,17.10
2019-06-20T04:28:50.766Z,17.20
2019-06-20T04:31:31.658Z,17.00
2019-06-20T04:34:12.469Z,16.60
2019-06-20T04:36:53.449Z,16.60
2019-06-20T04:39:34.558Z,16.60
2019-06-20T04:42:18.611Z,16.90
2019-06-20T04:44:45.783Z,17.00
2019-06-20T04:47:33.604Z,17.10
2019-06-20T04:50:21.468Z,17.20
2019-06-20T04:53:09.308Z,17.30
2019-06-20T04:55:57.100Z,17.50
2019-06-20T04:58:44.876Z,17.60
2019-06-20T05:01:32.668Z,17.60
2019-06-20T05:04:20.440Z,17.70
2019-06-20T05:07:01.173Z,17.70
2019-06-20T05:09:42.023Z,17.70
2019-06-20T05:12:22.407Z,17.80
2019-06-20T05:15:03.527Z,17.60
2019-06-20T05:17:44.481Z,17.70
2019-06-20T05:20:25.429Z,17.80
2019-06-20T05:23:06.392Z,18.00
2019-06-20T05:25:47.141Z,18.30
2019-06-20T05:28:27.948Z,18.40
2019-06-20T05:31:08.350Z,18.30
2019-06-20T05:33:49.036Z,18.70
2019-06-20T05:36:29.536Z,18.70
2019-06-20T05:39:10.214Z,18.60
2019-06-20T05:45:03.534Z,18.70
2019-06-20T05:47:44.140Z,18.90
2019-06-20T05:50:24.879Z,19.10
2019-06-20T05:53:05.834Z,19.30
2019-06-20T05:55:34.434Z,19.50
2019-06-20T05:58:02.875Z,20.00
2019-06-20T06:00:50.651Z,20.20
2019-06-20T06:03:38.511Z,20.50
2019-06-20T06:06:06.967Z,20.90
2019-06-20T06:08:54.816Z,21.20
2019-06-20T06:11:42.609Z,21.30
2019-06-20T06:14:11.141Z,21.20
2019-06-20T06:16:58.986Z,20.90
2019-06-20T06:19:46.774Z,20.70
2019-06-20T06:22:34.582Z,20.50
2019-06-20T06:25:22.409Z,20.40
2019-06-20T06:28:12.346Z,20.40
2019-06-20T06:30:59.692Z,20.40
2019-06-20T06:33:47.472Z,20.60
2019-06-20T06:36:35.320Z,20.60
2019-06-20T06:39:23.100Z,20.60
2019-06-20T06:42:10.876Z,20.70
2019-06-20T06:44:58.663Z,20.80
2019-06-20T06:47:46.485Z,21.00
2019-06-20T06:50:34.275Z,21.30
2019-06-20T06:53:22.053Z,21.40
2019-06-20T06:56:09.825Z,21.50
2019-06-20T06:58:57.674Z,21.40
2019-06-20T07:01:26.105Z,21.50
2019-06-20T07:04:13.947Z,21.40
2019-06-20T07:06:54.312Z,21.60
2019-06-20T07:09:35.539Z,21.90
2019-06-20T07:12:16.010Z,22.10
2019-06-20T07:14:56.815Z,22.30
2019-06-20T07:17:37.695Z,22.30
2019-06-20T07:20:18.556Z,22.50
2019-06-20T07:22:59.545Z,22.50
2019-06-20T07:25:40.340Z,22.50
2019-06-20T07:28:21.156Z,22.60
2019-06-20T07:31:02.248Z,22.50
2019-06-20T07:33:43.300Z,22.70
2019-06-20T07:36:24.154Z,22.60
2019-06-20T07:39:05.127Z,22.80
2019-06-20T07:41:46.123Z,23.00
2019-06-20T07:44:26.733Z,23.00
2019-06-20T07:47:17.141Z,23.10
2019-06-20T07:49:49.733Z,23.30
2019-06-20T07:52:30.875Z,23.10
2019-06-20T07:55:11.873Z,23.20
2019-06-20T07:57:52.390Z,23.20
2019-06-20T08:00:33.080Z,23.20
2019-06-20T08:03:13.694Z,23.40
2019-06-20T08:05:54.220Z,23.50
2019-06-20T08:08:34.666Z,23.50
2019-06-20T08:11:15.513Z,23.50
2019-06-20T08:13:56.332Z,23.60
2019-06-20T08:16:36.862Z,23.60
2019-06-20T08:19:18.018Z,23.80
2019-06-20T08:21:58.513Z,23.80
2019-06-20T08:24:39.403Z,23.70
2019-06-20T08:27:21.778Z,23.80
2019-06-20T08:30:03.575Z,24.30
2019-06-20T08:32:43.985Z,24.20
2019-06-20T08:35:24.475Z,24.80
2019-06-20T08:38:05.817Z,24.80
2019-06-20T08:40:47.949Z,25.10
2019-06-20T08:43:28.883Z,25.10
2019-06-20T08:46:10.513Z,25.00
2019-06-20T08:48:50.851Z,24.80
2019-06-20T08:51:31.781Z,24.50
2019-06-20T08:54:12.757Z,24.80
2019-06-20T08:56:54.536Z,25.10
2019-06-20T08:59:35.930Z,24.90
2019-06-20T09:04:54.815Z,25.60
2019-06-20T09:07:22.466Z,25.90
2019-06-20T09:10:10.836Z,26.10
2019-06-20T09:12:59.139Z,26.40
2019-06-20T09:15:48.135Z,26.20
2019-06-20T09:18:35.919Z,26.30
2019-06-20T09:21:04.503Z,26.40
2019-06-20T09:23:53.827Z,26.00
2019-06-20T09:26:22.435Z,26.00
2019-06-20T09:29:10.205Z,25.90
2019-06-20T09:31:58.533Z,25.80
2019-06-20T09:34:28.159Z,25.90
2019-06-20T09:36:57.517Z,25.70
2019-06-20T09:39:26.829Z,26.00
2019-06-20T09:41:56.510Z,26.50
2019-06-20T09:44:25.469Z,27.00
2019-06-20T09:47:13.361Z,26.70
2019-06-20T09:50:01.151Z,26.80
2019-06-20T09:52:51.340Z,26.90
2019-06-20T09:55:38.467Z,27.10
2019-06-20T09:58:07.302Z,27.50
2019-06-20T10:00:55.194Z,27.80
2019-06-20T10:03:43.044Z,27.80
2019-06-20T10:06:30.843Z,27.90
2019-06-20T10:09:11.890Z,28.10
2019-06-20T10:11:54.030Z,27.80
2019-06-20T10:14:34.457Z,28.30
2019-06-20T10:17:15.252Z,28.40
2019-06-20T10:19:56.353Z,28.20
2019-06-20T10:22:36.880Z,28.30
2019-06-20T10:25:17.442Z,28.50
2019-06-20T10:27:46.627Z,28.80
2019-06-20T10:30:35.448Z,28.30
2019-06-20T10:33:03.947Z,28.20
2019-06-20T10:35:32.421Z,28.00
2019-06-20T10:38:20.263Z,28.30
2019-06-20T10:41:08.039Z,28.00
2019-06-20T10:43:56.642Z,28.20
2019-06-20T10:46:45.784Z,28.50
2019-06-20T10:49:14.660Z,28.80
2019-06-20T10:52:02.440Z,28.40
2019-06-20T10:54:51.415Z,28.40
2019-06-20T10:57:41.252Z,27.70
2019-06-20T11:00:31.962Z,27.60
2019-06-20T11:03:20.322Z,27.50
2019-06-20T11:06:08.125Z,27.20
2019-06-20T11:08:49.468Z,27.10
2019-06-20T11:11:30.451Z,27.20
2019-06-20T11:14:11.494Z,27.10
2019-06-20T11:16:52.587Z,27.20
2019-06-20T11:19:33.640Z,27.50
2019-06-20T11:22:14.582Z,28.30
2019-06-20T11:24:55.127Z,28.50
2019-06-20T11:27:37.662Z,28.40
2019-06-20T11:30:27.391Z,28.50
2019-06-20T11:33:15.180Z,28.30
2019-06-20T11:35:43.615Z,28.20
2019-06-20T11:38:31.408Z,27.90
2019-06-20T11:41:19.301Z,27.90
2019-06-20T11:43:47.781Z,27.70
2019-06-20T11:46:36.975Z,27.70
2019-06-20T11:49:25.060Z,27.60
2019-06-20T11:52:12.842Z,27.20
2019-06-20T11:55:00.613Z,27.40
2019-06-20T11:57:48.474Z,27.30
2019-06-20T12:00:36.247Z,27.20
2019-06-20T12:03:24.032Z,27.40
2019-06-20T12:06:11.799Z,27.20
2019-06-20T12:08:52.355Z,27.30
2019-06-20T12:14:32.095Z,26.80
2019-06-20T12:17:13.041Z,26.90
2019-06-20T12:19:42.457Z,26.70
2019-06-20T12:22:31.007Z,26.60
2019-06-20T12:25:18.952Z,26.50
2019-06-20T12:27:47.704Z,26.00
2019-06-20T12:30:38.412Z,25.40
2019-06-20T12:33:26.537Z,24.70
2019-06-20T12:36:14.310Z,24.30
2019-06-20T12:39:02.098Z,24.00
2019-06-20T12:41:50.293Z,22.90
2019-06-20T12:44:40.119Z,21.20
2019-06-20T12:47:28.993Z,20.60
2019-06-20T12:50:17.045Z,20.30
2019-06-20T12:53:04.898Z,20.60
2019-06-20T12:55:52.730Z,19.50
2019-06-20T12:58:41.056Z,19.90
2019-06-20T13:01:36.731Z,20.00
2019-06-20T13:04:00.214Z,21.40
2019-06-20T13:06:49.491Z,21.90
2019-06-20T13:09:30.033Z,22.20
2019-06-20T13:12:10.914Z,21.10
2019-06-20T13:14:51.694Z,21.40
2019-06-20T13:17:31.894Z,21.30
2019-06-20T13:20:00.331Z,21.90
2019-06-20T13:22:49.553Z,22.40
2019-06-20T13:25:39.158Z,22.70
2019-06-20T13:28:27.237Z,22.70
2019-06-20T13:31:15.008Z,21.90
2019-06-20T13:34:02.796Z,22.20
2019-06-20T13:36:50.565Z,22.70
2019-06-20T13:39:19.020Z,23.40
2019-06-20T13:42:06.801Z,23.60
2019-06-20T13:44:54.575Z,24.00
2019-06-20T13:47:23.032Z,23.90
2019-06-20T13:50:10.857Z,23.70
2019-06-20T13:52:41.943Z,23.50
2019-06-20T13:55:28.876Z,23.60
2019-06-20T13:57:57.334Z,23.70
2019-06-20T14:00:45.495Z,23.70
2019-06-20T14:03:15.279Z,23.60
2019-06-20T14:06:03.058Z,23.40
2019-06-20T14:08:31.561Z,23.50
2019-06-20T14:11:19.350Z,23.40
2019-06-20T14:14:07.139Z,23.40
2019-06-20T14:16:35.571Z,23.50
2019-06-20T14:19:23.373Z,23.40
2019-06-20T14:22:11.153Z,23.20
2019-06-20T14:24:59.036Z,23.30
2019-06-20T14:27:46.844Z,23.30
2019-06-20T14:30:34.753Z,23.20
2019-06-20T14:33:22.535Z,23.10
2019-06-20T14:36:10.310Z,23.00
2019-06-20T14:38:58.116Z,22.80
2019-06-20T14:41:46.437Z,22.90
2019-06-20T14:44:34.306Z,22.80
2019-06-20T14:47:22.165Z,22.90
2019-06-20T14:50:10.396Z,23.10
2019-06-20T14:52:58.161Z,23.10
2019-06-20T14:55:47.577Z,23.00
2019-06-20T14:58:35.568Z,23.10
2019-06-20T15:01:23.364Z,23.00
2019-06-20T15:04:11.157Z,23.00
2019-06-20T15:06:58.986Z,23.10
2019-06-20T15:09:27.521Z,23.10
2019-06-20T15:12:15.322Z,23.30
2019-06-20T15:15:23.827Z,23.20
2019-06-20T15:18:11.685Z,23.10
2019-06-20T15:20:40.146Z,23.20
2019-06-20T15:23:27.926Z,23.20
2019-06-20T15:26:15.717Z,23.10
2019-06-20T15:29:06.166Z,23.10
2019-06-20T15:31:53.020Z,23.30
2019-06-20T15:34:40.813Z,23.40
2019-06-20T15:37:28.576Z,23.20
2019-06-20T15:40:16.435Z,23.10
2019-06-20T15:42:44.928Z,23.10
2019-06-20T15:45:32.713Z,23.00
2019-06-20T15:48:20.504Z,22.90
2019-06-20T15:51:08.326Z,23.00
2019-06-20T15:53:56.181Z,23.00
2019-06-20T15:56:24.682Z,22.60
2019-06-20T15:58:53.185Z,22.50
2019-06-20T16:01:21.636Z,23.00
2019-06-20T16:03:50.140Z,23.20
2019-06-20T16:06:18.592Z,23.40
2019-06-20T16:08:59.008Z,23.50
2019-06-20T16:11:39.993Z,23.40
2019-06-20T16:14:21.204Z,23.50
2019-06-20T16:16:50.023Z,23.40
2019-06-20T16:19:37.809Z,22.90
2019-06-20T16:22:25.587Z,23.00
2019-06-20T16:25:13.468Z,22.90
2019-06-20T16:27:42.025Z,23.00
2019-06-20T16:30:33.412Z,23.20
2019-06-20T16:36:08.700Z,23.10
2019-06-20T16:38:56.485Z,22.70
2019-06-20T16:41:44.283Z,22.60
2019-06-20T16:44:12.753Z,22.40
2019-06-20T16:46:41.206Z,22.50
2019-06-20T16:49:28.988Z,22.70
2019-06-20T16:52:16.757Z,22.80
2019-06-20T16:54:45.209Z,22.60
2019-06-20T16:57:33.029Z,22.50
2019-06-20T17:00:20.929Z,22.80
2019-06-20T17:03:08.738Z,23.10
2019-06-20T17:05:56.576Z,23.30
2019-06-20T17:11:49.627Z,23.30
2019-06-20T17:14:30.384Z,23.50
2019-06-20T17:16:58.845Z,23.40
2019-06-20T17:19:46.692Z,23.40
2019-06-20T17:22:34.464Z,23.40
2019-06-20T17:25:22.320Z,23.40
2019-06-20T17:28:10.153Z,23.40
2019-06-20T17:30:57.943Z,23.40
2019-06-20T17:33:26.443Z,23.30
2019-06-20T17:36:18.123Z,23.20
2019-06-20T17:39:24.520Z,23.10
2019-06-20T17:42:12.999Z,23.00
2019-06-20T17:45:02.049Z,23.00
2019-06-20T17:47:30.528Z,23.10
2019-06-20T17:50:18.487Z,23.20
2019-06-20T17:53:06.268Z,23.10
2019-06-20T17:55:54.051Z,23.10
2019-06-20T17:58:41.831Z,23.10
2019-06-20T18:01:29.608Z,23.20
2019-06-20T18:04:17.383Z,23.20
2019-06-20T18:07:05.262Z,23.20
2019-06-20T18:09:33.769Z,23.20
2019-06-20T18:12:02.208Z,23.10
2019-06-20T18:14:49.974Z,23.10
2019-06-20T18:17:37.763Z,23.10
2019-06-20T18:20:46.269Z,23.00
2019-06-20T18:23:34.056Z,23.00
2019-06-20T18:26:21.816Z,23.00
2019-06-20T18:29:09.588Z,22.80
2019-06-20T18:31:57.375Z,22.70
2019-06-20T18:35:00.505Z,22.70
2019-06-20T18:37:34.775Z,22.60
2019-06-20T18:40:22.576Z,22.50
2019-06-20T18:43:10.363Z,22.40
2019-06-20T18:48:51.893Z,22.20
2019-06-20T18:51:39.683Z,22.10
2019-06-20T18:54:27.477Z,21.90
2019-06-20T18:57:15.312Z,21.80
2019-06-20T19:00:34.118Z,21.70
2019-06-20T19:02:53.995Z,21.40
2019-06-20T19:05:49.231Z,21.30
2019-06-20T19:08:17.685Z,20.70
2019-06-20T19:10:46.135Z,21.00
2019-06-20T19:13:33.901Z,20.70
2019-06-20T19:16:21.752Z,20.60
2019-06-20T19:18:50.197Z,20.50
2019-06-20T19:21:37.972Z,20.30
2019-06-20T19:24:25.750Z,20.20
2019-06-20T19:27:13.548Z,20.10
2019-06-20T19:30:01.335Z,19.70
2019-06-20T19:32:49.150Z,19.50
2019-06-20T19:35:36.927Z,19.60
2019-06-20T19:38:24.791Z,19.60
2019-06-20T19:41:12.652Z,19.60
2019-06-20T19:44:00.560Z,19.40
2019-06-20T19:46:48.343Z,19.60
2019-06-20T19:49:36.128Z,19.50
2019-06-20T19:52:23.910Z,19.40
2019-06-20T19:55:12.149Z,19.50
2019-06-20T19:57:40.615Z,19.40
2019-06-20T20:00:28.377Z,19.20
2019-06-20T20:03:16.160Z,19.00
2019-06-20T20:06:03.950Z,18.90
2019-06-20T20:08:32.469Z,19.10
2019-06-20T20:11:20.232Z,19.10
2019-06-20T20:13:48.672Z,19.10
2019-06-20T20:16:17.180Z,19.10
2019-06-20T20:19:04.966Z,18.90
2019-06-20T20:21:52.728Z,18.70
2019-06-20T20:24:21.190Z,18.60
2019-06-20T20:27:09.013Z,18.60
2019-06-20T20:29:56.809Z,18.50
2019-06-20T20:32:44.585Z,18.50
2019-06-20T20:35:35.861Z,18.50
2019-06-20T20:38:03.053Z,18.20
2019-06-20T20:40:31.498Z,18.30
2019-06-20T20:43:19.275Z,18.40
2019-06-20T20:46:07.074Z,18.30
2019-06-20T20:48:54.851Z,18.30
2019-06-20T20:51:23.292Z,18.10
2019-06-20T20:54:11.064Z,17.90
2019-06-20T20:56:58.846Z,18.10
2019-06-20T20:59:46.633Z,18.10
2019-06-20T21:02:34.400Z,18.00
2019-06-20T21:05:03.128Z,18.00
2019-06-20T21:07:43.641Z,17.90
2019-06-20T21:10:24.521Z,17.70
2019-06-20T21:13:05.289Z,17.70
2019-06-20T21:15:46.077Z,17.60
2019-06-20T21:18:27.006Z,17.50
2019-06-20T21:21:07.866Z,17.40
2019-06-20T21:23:48.881Z,17.20
2019-06-20T21:26:17.332Z,17.10
2019-06-20T21:29:05.107Z,17.00
2019-06-20T21:31:52.890Z,17.00
2019-06-20T21:34:40.663Z,17.10
2019-06-20T21:37:28.433Z,16.90
2019-06-20T21:40:16.369Z,16.60
2019-06-20T21:43:04.204Z,16.60
2019-06-20T21:45:51.990Z,16.70
2019-06-20T21:48:39.755Z,16.80
2019-06-20T21:51:27.560Z,16.90
2019-06-20T21:53:56.048Z,16.80
2019-06-20T21:56:24.534Z,16.70
2019-06-20T21:58:52.997Z,16.70
2019-06-20T22:01:40.871Z,16.60
2019-06-20T22:04:28.636Z,16.60
2019-06-20T22:06:57.079Z,16.50
2019-06-20T22:09:38.185Z,16.40
2019-06-20T22:12:19.215Z,16.40
2019-06-20T22:15:00.094Z,16.30
2019-06-20T22:17:40.946Z,16.10
2019-06-20T22:20:21.982Z,16.10
2019-06-20T22:23:02.774Z,16.10
2019-06-20T22:25:31.366Z,16.10
2019-06-20T22:27:59.787Z,16.00
2019-06-20T22:31:08.297Z,15.90
2019-06-20T22:33:56.068Z,16.00
2019-06-20T22:36:39.117Z,16.00
2019-06-20T22:39:14.005Z,16.10
2019-06-20T22:42:01.781Z,16.00
2019-06-20T22:44:49.549Z,15.90
2019-06-20T22:47:37.334Z,16.00
2019-06-20T22:50:25.529Z,15.90
2019-06-20T22:53:13.294Z,15.90
2019-06-20T22:56:01.084Z,15.80
2019-06-20T22:58:29.577Z,15.70
2019-06-20T23:01:17.366Z,15.70
2019-06-20T23:04:05.138Z,15.50
2019-06-20T23:06:56.629Z,15.50
2019-06-20T23:09:35.169Z,15.50
2019-06-20T23:12:03.688Z,15.40
2019-06-20T23:14:51.544Z,15.40
2019-06-20T23:17:39.336Z,15.40
2019-06-20T23:20:27.124Z,15.10
2019-06-20T23:23:14.893Z,14.70
2019-06-20T23:29:16.749Z,15.10
2019-06-20T23:32:04.532Z,15.20
2019-06-20T23:34:52.301Z,15.10
2019-06-20T23:37:40.081Z,15.10
2019-06-20T23:40:27.859Z,15.20
2019-06-20T23:43:15.647Z,15.20
2019-06-20T23:45:44.099Z,15.00
2019-06-20T23:48:31.877Z,14.70
2019-06-20T23:54:14.857Z,14.90
2019-06-20T23:57:02.644Z,15.00
2019-06-20T23:59:50.418Z,15.00
